createdAt,value
2017-05-20T00:01:06.818Z,0
2017-05-20T00:02:07.446Z,0
2017-05-20T00:03:08.037Z,0
2017-05-20T00:04:08.645Z,0
2017-05-20T00:05:09.247Z,0
2017-05-20T00:06:09.865Z,0
2017-05-20T00:07:10.465Z,0
2017-05-20T00:08:11.064Z,0
2017-05-20T00:09:11.680Z,0
2017-05-20T00:10:12.298Z,0
2017-05-20T00:11:12.896Z,0
2017-05-20T00:12:13.489Z,0
2017-05-20T00:13:14.099Z,0
2017-05-20T00:14:14.703Z,0
2017-05-20T00:15:15.297Z,0
2017-05-20T00:16:15.899Z,0
2017-05-20T00:17:16.499Z,0
2017-05-20T00:18:17.115Z,0
2017-05-20T00:19:17.720Z,0
2017-05-20T00:20:18.327Z,0
2017-05-20T00:21:18.928Z,0
2017-05-20T00:22:19.539Z,0
2017-05-20T00:23:20.141Z,0
2017-05-20T00:24:20.792Z,0
2017-05-20T00:25:21.387Z,0
2017-05-20T00:26:21.996Z,0
2017-05-20T00:27:22.590Z,0
2017-05-20T00:28:23.187Z,0
2017-05-20T00:29:23.797Z,0
2017-05-20T00:30:24.419Z,0
2017-05-20T00:31:25.029Z,0
2017-05-20T00:32:25.645Z,0
2017-05-20T00:33:26.253Z,0
2017-05-20T00:34:26.916Z,0
2017-05-20T00:35:27.525Z,0
2017-05-20T00:36:28.133Z,0
2017-05-20T00:37:28.737Z,0
2017-05-20T00:38:29.346Z,0
2017-05-20T00:39:29.939Z,0
2017-05-20T00:40:30.535Z,0
2017-05-20T00:41:31.143Z,0
2017-05-20T00:42:31.747Z,0
2017-05-20T00:43:32.355Z,0
2017-05-20T00:44:32.958Z,0
2017-05-20T00:45:33.566Z,0
2017-05-20T00:46:34.227Z,0
2017-05-20T00:47:34.830Z,0
2017-05-20T00:48:35.442Z,0
2017-05-20T00:49:36.038Z,0
2017-05-20T00:50:36.640Z,0
2017-05-20T00:51:37.234Z,0
2017-05-20T00:52:37.835Z,0
2017-05-20T00:53:38.428Z,0
2017-05-20T00:54:39.024Z,0
2017-05-20T00:55:39.617Z,0
2017-05-20T00:56:40.267Z,0
2017-05-20T00:57:40.869Z,0
2017-05-20T00:58:41.481Z,0
2017-05-20T00:59:42.090Z,0
2017-05-20T01:00:42.698Z,0
2017-05-20T01:01:43.358Z,0
2017-05-20T01:02:43.961Z,0
2017-05-20T01:03:44.562Z,0
2017-05-20T01:04:45.170Z,0
2017-05-20T01:05:45.765Z,0
2017-05-20T01:06:46.368Z,0
2017-05-20T01:07:46.978Z,0
2017-05-20T01:08:47.579Z,0
2017-05-20T01:09:48.197Z,0
2017-05-20T01:10:48.790Z,0
2017-05-20T01:11:49.397Z,0
2017-05-20T01:12:50.008Z,0
2017-05-20T01:13:50.608Z,0
2017-05-20T01:14:51.224Z,0
2017-05-20T01:15:51.829Z,0
2017-05-20T01:16:52.437Z,0
2017-05-20T01:17:53.029Z,0
2017-05-20T01:18:53.623Z,0
2017-05-20T01:19:54.233Z,0
2017-05-20T01:20:54.828Z,0
2017-05-20T01:21:55.420Z,0
2017-05-20T01:22:56.013Z,0
2017-05-20T01:23:56.625Z,0
2017-05-20T01:24:57.217Z,0
2017-05-20T01:25:57.814Z,0
2017-05-20T01:26:58.421Z,0
2017-05-20T01:27:59.021Z,0
2017-05-20T01:28:59.616Z,0
2017-05-20T01:30:00.228Z,0
2017-05-20T01:31:00.841Z,0
2017-05-20T01:32:01.450Z,0
2017-05-20T01:33:02.044Z,0
2017-05-20T01:34:02.649Z,0
2017-05-20T01:35:03.243Z,0
2017-05-20T01:36:03.851Z,0
2017-05-20T01:37:04.445Z,0
2017-05-20T01:38:05.056Z,0
2017-05-20T01:39:05.665Z,0
2017-05-20T01:40:06.269Z,0
2017-05-20T01:41:06.870Z,0
2017-05-20T01:42:07.465Z,0
2017-05-20T01:43:08.074Z,0
2017-05-20T01:44:08.673Z,0
2017-05-20T01:45:09.276Z,0
2017-05-20T01:46:09.875Z,0
2017-05-20T01:47:10.480Z,0
2017-05-20T01:48:11.072Z,0
2017-05-20T01:49:11.665Z,0
2017-05-20T01:50:12.269Z,0
2017-05-20T01:51:12.885Z,0
2017-05-20T01:52:13.560Z,0
2017-05-20T01:53:14.114Z,0
2017-05-20T01:54:14.727Z,0
2017-05-20T01:55:15.344Z,0
2017-05-20T01:56:15.962Z,0
2017-05-20T01:57:16.570Z,0
2017-05-20T01:58:17.179Z,0
2017-05-20T01:59:17.797Z,0
2017-05-20T02:00:18.391Z,0
2017-05-20T02:01:18.999Z,0
2017-05-20T02:02:19.601Z,0
2017-05-20T02:03:20.203Z,0
2017-05-20T02:04:20.804Z,0
2017-05-20T02:05:21.403Z,0
2017-05-20T02:06:22.014Z,0
2017-05-20T02:07:22.625Z,0
2017-05-20T02:08:23.245Z,0
2017-05-20T02:09:23.842Z,0
2017-05-20T02:10:24.445Z,0
2017-05-20T02:11:25.044Z,0
2017-05-20T02:12:25.639Z,0
2017-05-20T02:13:26.233Z,0
2017-05-20T02:14:26.839Z,0
2017-05-20T02:15:27.444Z,0
2017-05-20T02:16:28.048Z,0
2017-05-20T02:17:28.641Z,0
2017-05-20T02:18:29.250Z,0
2017-05-20T02:19:29.861Z,0
2017-05-20T02:20:30.473Z,0
2017-05-20T02:21:31.066Z,0
2017-05-20T02:22:31.665Z,0
2017-05-20T02:23:32.286Z,0
2017-05-20T02:24:32.900Z,0
2017-05-20T02:25:33.499Z,0
2017-05-20T02:26:34.096Z,0
2017-05-20T02:27:34.689Z,0
2017-05-20T02:28:35.295Z,0
2017-05-20T02:29:35.898Z,0
2017-05-20T02:30:36.516Z,0
2017-05-20T02:31:37.131Z,0
2017-05-20T02:32:37.796Z,0
2017-05-20T02:33:38.408Z,0
2017-05-20T02:34:39.044Z,0
2017-05-20T02:35:39.631Z,0
2017-05-20T02:36:40.239Z,0
2017-05-20T02:37:40.846Z,0
2017-05-20T02:38:41.465Z,0
2017-05-20T02:39:42.081Z,0
2017-05-20T02:40:42.691Z,0
2017-05-20T02:41:43.309Z,0
2017-05-20T02:42:43.903Z,0
2017-05-20T02:43:44.499Z,0
2017-05-20T02:44:45.100Z,0
2017-05-20T02:45:45.706Z,0
2017-05-20T02:46:46.305Z,0
2017-05-20T02:47:46.905Z,0
2017-05-20T02:48:47.501Z,0
2017-05-20T02:49:48.155Z,0
2017-05-20T02:50:48.761Z,0
2017-05-20T02:51:49.356Z,0
2017-05-20T02:52:49.955Z,0
2017-05-20T02:53:50.571Z,0
2017-05-20T02:54:51.172Z,0
2017-05-20T02:55:51.785Z,0
2017-05-20T02:56:52.391Z,0
2017-05-20T02:57:53.001Z,4
2017-05-20T02:58:53.596Z,4
2017-05-20T02:59:54.195Z,0
2017-05-20T03:00:54.787Z,4
2017-05-20T03:01:55.398Z,4
2017-05-20T03:02:56.009Z,4
2017-05-20T03:03:56.610Z,4
2017-05-20T03:04:57.228Z,8
2017-05-20T03:05:57.843Z,4
2017-05-20T03:06:58.451Z,8
2017-05-20T03:07:59.054Z,8
2017-05-20T03:08:59.663Z,12
2017-05-20T03:10:00.325Z,12
2017-05-20T03:11:00.925Z,12
2017-05-20T03:12:01.519Z,16
2017-05-20T03:13:02.134Z,20
2017-05-20T03:14:02.730Z,24
2017-05-20T03:15:03.340Z,28
2017-05-20T03:16:03.935Z,32
2017-05-20T03:17:04.549Z,36
2017-05-20T03:18:05.163Z,44
2017-05-20T03:19:05.782Z,48
2017-05-20T03:20:06.400Z,60
2017-05-20T03:21:06.994Z,68
2017-05-20T03:22:07.593Z,80
2017-05-20T03:23:08.196Z,88
2017-05-20T03:24:08.797Z,100
2017-05-20T03:25:09.393Z,112
2017-05-20T03:26:09.996Z,120
2017-05-20T03:27:10.597Z,136
2017-05-20T03:28:11.202Z,152
2017-05-20T03:29:11.814Z,168
2017-05-20T03:30:12.433Z,192
2017-05-20T03:31:13.036Z,212
2017-05-20T03:32:13.629Z,240
2017-05-20T03:33:14.227Z,268
2017-05-20T03:34:14.832Z,300
2017-05-20T03:35:15.444Z,328
2017-05-20T03:36:16.040Z,360
2017-05-20T03:37:16.636Z,396
2017-05-20T03:38:17.232Z,436
2017-05-20T03:39:17.938Z,480
2017-05-20T03:40:18.553Z,520
2017-05-20T03:41:19.146Z,556
2017-05-20T03:42:19.752Z,592
2017-05-20T03:43:20.368Z,632
2017-05-20T03:44:20.981Z,672
2017-05-20T03:45:21.599Z,712
2017-05-20T03:46:22.220Z,748
2017-05-20T03:47:22.829Z,796
2017-05-20T03:48:23.431Z,844
2017-05-20T03:49:24.034Z,904
2017-05-20T03:50:24.654Z,956
2017-05-20T03:51:25.257Z,1020
2017-05-20T03:52:25.883Z,1080
2017-05-20T03:53:26.498Z,1144
2017-05-20T03:54:27.096Z,1212
2017-05-20T03:55:27.694Z,1280
2017-05-20T03:56:28.307Z,1360
2017-05-20T03:57:28.911Z,1436
2017-05-20T03:58:29.526Z,1496
2017-05-20T03:59:30.130Z,1548
2017-05-20T04:00:30.749Z,1588
2017-05-20T04:01:31.363Z,1636
2017-05-20T04:02:31.971Z,1680
2017-05-20T04:03:32.583Z,1748
2017-05-20T04:04:33.203Z,1820
2017-05-20T04:05:33.809Z,1880
2017-05-20T04:06:34.423Z,1916
2017-05-20T04:07:35.045Z,1948
2017-05-20T04:08:35.647Z,1976
2017-05-20T04:09:36.255Z,2004
2017-05-20T04:10:36.861Z,2048
2017-05-20T04:11:37.473Z,2112
2017-05-20T04:12:38.077Z,2180
2017-05-20T04:13:38.680Z,2252
2017-05-20T04:14:39.279Z,2312
2017-05-20T04:15:39.892Z,2384
2017-05-20T04:16:40.490Z,2452
2017-05-20T04:17:41.100Z,2504
2017-05-20T04:18:41.709Z,2548
2017-05-20T04:19:42.315Z,2580
2017-05-20T04:20:42.935Z,2600
2017-05-20T04:21:43.556Z,2616
2017-05-20T04:22:44.168Z,2612
2017-05-20T04:23:44.777Z,2628
2017-05-20T04:24:45.385Z,2728
2017-05-20T04:25:45.999Z,2844
2017-05-20T04:26:46.620Z,2964
2017-05-20T04:27:47.226Z,3100
2017-05-20T04:28:47.839Z,3264
2017-05-20T04:29:48.449Z,3488
2017-05-20T04:30:49.069Z,3724
2017-05-20T04:31:49.668Z,3948
2017-05-20T04:32:50.281Z,4096
2017-05-20T04:33:50.880Z,4212
2017-05-20T04:34:51.487Z,4292
2017-05-20T04:35:52.091Z,4412
2017-05-20T04:36:52.757Z,4448
2017-05-20T04:37:53.374Z,4400
2017-05-20T04:38:54.001Z,4388
2017-05-20T04:39:54.602Z,4488
2017-05-20T04:40:55.207Z,4644
2017-05-20T04:41:55.807Z,4992
2017-05-20T04:42:56.411Z,5080
2017-05-20T04:43:57.011Z,6072
2017-05-20T04:44:57.625Z,5900
2017-05-20T04:45:58.234Z,6748
2017-05-20T04:46:58.855Z,7680
2017-05-20T04:47:59.474Z,7012
2017-05-20T04:49:00.098Z,5572
2017-05-20T04:50:00.717Z,6248
2017-05-20T04:51:01.338Z,6400
2017-05-20T04:52:01.951Z,5624
2017-05-20T04:53:02.562Z,6500
2017-05-20T04:54:03.165Z,8880
2017-05-20T04:55:03.776Z,9152
2017-05-20T04:56:04.401Z,9584
2017-05-20T04:57:05.012Z,10196
2017-05-20T04:58:05.616Z,9760
2017-05-20T04:59:06.283Z,9704
2017-05-20T05:00:06.897Z,9620
2017-05-20T05:01:07.519Z,10612
2017-05-20T05:02:08.138Z,10608
2017-05-20T05:03:08.755Z,10760
2017-05-20T05:04:09.424Z,11084
2017-05-20T05:05:10.040Z,9672
2017-05-20T05:06:10.654Z,9716
2017-05-20T05:07:11.258Z,8760
2017-05-20T05:08:11.873Z,12140
2017-05-20T05:09:12.483Z,13400
2017-05-20T05:10:13.095Z,13848
2017-05-20T05:11:13.712Z,14336
2017-05-20T05:12:14.322Z,11352
2017-05-20T05:13:14.942Z,9624
2017-05-20T05:14:15.563Z,16260
2017-05-20T05:15:16.179Z,14496
2017-05-20T05:16:16.806Z,11120
2017-05-20T05:17:17.416Z,9720
2017-05-20T05:18:18.090Z,13004
2017-05-20T05:19:18.711Z,17092
2017-05-20T05:20:19.309Z,16276
2017-05-20T05:21:19.923Z,17068
2017-05-20T05:22:20.537Z,18912
2017-05-20T05:23:21.168Z,19296
2017-05-20T05:24:21.788Z,18944
2017-05-20T05:25:22.399Z,18304
2017-05-20T05:26:23.018Z,17824
2017-05-20T05:27:23.637Z,17408
2017-05-20T05:28:24.267Z,14860
2017-05-20T05:29:24.899Z,14052
2017-05-20T05:30:25.511Z,10396
2017-05-20T05:31:26.132Z,11216
2017-05-20T05:32:26.754Z,15272
2017-05-20T05:33:27.382Z,18912
2017-05-20T05:34:28.002Z,19616
2017-05-20T05:35:28.623Z,20064
2017-05-20T05:36:29.244Z,20288
2017-05-20T05:37:29.875Z,20576
2017-05-20T05:38:30.493Z,21664
2017-05-20T05:39:31.123Z,15616
2017-05-20T05:40:31.743Z,12952
2017-05-20T05:41:32.379Z,21312
2017-05-20T05:42:33.008Z,21568
2017-05-20T05:43:33.682Z,22336
2017-05-20T05:44:34.305Z,22752
2017-05-20T05:45:34.924Z,22720
2017-05-20T05:46:35.563Z,22368
2017-05-20T05:47:36.183Z,23008
2017-05-20T05:48:36.800Z,24832
2017-05-20T05:49:37.431Z,26720
2017-05-20T05:50:38.076Z,27616
2017-05-20T05:51:38.687Z,26592
2017-05-20T05:52:39.320Z,24480
2017-05-20T05:53:40.008Z,23136
2017-05-20T05:54:40.643Z,24096
2017-05-20T05:55:41.277Z,26272
2017-05-20T05:56:41.917Z,27840
2017-05-20T05:57:42.554Z,28224
2017-05-20T05:58:43.190Z,27776
2017-05-20T05:59:43.817Z,26720
2017-05-20T06:00:44.442Z,26368
2017-05-20T06:01:45.077Z,27168
2017-05-20T06:02:45.719Z,28480
2017-05-20T06:03:46.333Z,27936
2017-05-20T06:04:46.961Z,20640
2017-05-20T06:05:47.589Z,14084
2017-05-20T06:06:48.206Z,19744
2017-05-20T06:07:48.827Z,28448
2017-05-20T06:08:49.465Z,30016
2017-05-20T06:09:50.103Z,30784
2017-05-20T06:10:50.722Z,31456
2017-05-20T06:11:51.365Z,32000
2017-05-20T06:12:51.987Z,33344
2017-05-20T06:13:52.630Z,34272
2017-05-20T06:14:53.267Z,33824
2017-05-20T06:15:53.894Z,32224
2017-05-20T06:16:54.512Z,31104
2017-05-20T06:17:55.150Z,31264
2017-05-20T06:18:55.784Z,32800
2017-05-20T06:19:56.414Z,35296
2017-05-20T06:20:57.064Z,37888
2017-05-20T06:21:57.715Z,38464
2017-05-20T06:22:58.356Z,36992
2017-05-20T06:23:59.001Z,35552
2017-05-20T06:24:59.622Z,34816
2017-05-20T06:26:00.261Z,36064
2017-05-20T06:27:00.882Z,38944
2017-05-20T06:28:01.518Z,41376
2017-05-20T06:29:02.140Z,42112
2017-05-20T06:30:02.770Z,39456
2017-05-20T06:31:03.390Z,34240
2017-05-20T06:32:04.060Z,29856
2017-05-20T06:33:04.690Z,27936
2017-05-20T06:34:05.316Z,29344
2017-05-20T06:35:05.944Z,32096
2017-05-20T06:36:06.560Z,34592
2017-05-20T06:37:07.191Z,35008
2017-05-20T06:38:07.809Z,34464
2017-05-20T06:39:08.443Z,35104
2017-05-20T06:40:09.086Z,37120
2017-05-20T06:41:09.729Z,39840
2017-05-20T06:42:10.353Z,42144
2017-05-20T06:43:10.981Z,44128
2017-05-20T06:44:11.611Z,44672
2017-05-20T06:45:12.237Z,44032
2017-05-20T06:46:12.871Z,43456
2017-05-20T06:47:13.490Z,43744
2017-05-20T06:48:14.115Z,44480
2017-05-20T06:49:14.735Z,44288
2017-05-20T06:50:15.358Z,43456
2017-05-20T06:51:16.013Z,42048
2017-05-20T06:52:16.607Z,41856
2017-05-20T06:53:17.242Z,43200
2017-05-20T06:54:18.032Z,45408
2017-05-20T06:55:18.647Z,47840
2017-05-20T06:56:19.264Z,49920
2017-05-20T06:57:19.897Z,50496
2017-05-20T06:58:20.515Z,50336
2017-05-20T06:59:21.142Z,49664
2017-05-20T07:00:21.780Z,48352
2017-05-20T07:01:22.416Z,47968
2017-05-20T07:02:23.046Z,48032
2017-05-20T07:03:23.668Z,47392
2017-05-20T07:04:24.311Z,46912
2017-05-20T07:05:24.926Z,47008
2017-05-20T07:06:25.551Z,46880
2017-05-20T07:07:26.171Z,48448
2017-05-20T07:08:26.806Z,50880
2017-05-20T07:09:27.445Z,52096
2017-05-20T07:10:28.065Z,52512
2017-05-20T07:11:28.705Z,52832
2017-05-20T07:12:29.335Z,53536
2017-05-20T07:13:29.960Z,54848
2017-05-20T07:14:30.645Z,55232
2017-05-20T07:15:31.263Z,54560
2017-05-20T07:16:31.897Z,55040
2017-05-20T07:17:32.533Z,55840
2017-05-20T07:18:33.161Z,57408
2017-05-20T07:19:33.789Z,60960
2017-05-20T07:20:34.411Z,63200
2017-05-20T07:21:35.038Z,64384
2017-05-20T07:22:35.668Z,66048
2017-05-20T07:23:36.304Z,66240
2017-05-20T07:24:36.944Z,64384
2017-05-20T07:25:37.568Z,61536
2017-05-20T07:26:38.204Z,58656
2017-05-20T07:27:38.830Z,56736
2017-05-20T07:28:39.450Z,56992
2017-05-20T07:29:40.088Z,58752
2017-05-20T07:30:40.706Z,61088
2017-05-20T07:31:41.339Z,64256
2017-05-20T07:32:41.964Z,64416
2017-05-20T07:33:42.604Z,62656
2017-05-20T07:34:43.245Z,61696
2017-05-20T07:35:43.934Z,61344
2017-05-20T07:36:44.575Z,62176
2017-05-20T07:37:45.210Z,63072
2017-05-20T07:38:45.829Z,63296
2017-05-20T07:39:46.454Z,61696
2017-05-20T07:40:47.071Z,64160
2017-05-20T07:41:47.694Z,65440
2017-05-20T07:42:48.321Z,66304
2017-05-20T07:43:48.962Z,67456
2017-05-20T07:44:49.602Z,68384
2017-05-20T07:45:50.226Z,70496
2017-05-20T07:46:50.862Z,72640
2017-05-20T07:47:51.488Z,74272
2017-05-20T07:48:52.106Z,73472
2017-05-20T07:49:52.735Z,70848
2017-05-20T07:50:53.368Z,67872
2017-05-20T07:51:54.002Z,66048
2017-05-20T07:52:54.639Z,66400
2017-05-20T07:53:55.280Z,68864
2017-05-20T07:54:55.920Z,71136
2017-05-20T07:55:56.561Z,71648
2017-05-20T07:56:57.203Z,74528
2017-05-20T07:57:57.845Z,76352
2017-05-20T07:58:58.486Z,77632
2017-05-20T07:59:59.115Z,77920
2017-05-20T08:00:59.756Z,78432
2017-05-20T08:02:00.393Z,80256
2017-05-20T08:03:01.043Z,83168
2017-05-20T08:04:01.689Z,87232
2017-05-20T08:05:02.345Z,86976
2017-05-20T08:06:02.960Z,87520
2017-05-20T08:07:03.597Z,90112
2017-05-20T08:08:04.216Z,94720
2017-05-20T08:09:04.860Z,91488
2017-05-20T08:10:05.497Z,90464
2017-05-20T08:11:06.126Z,92320
2017-05-20T08:12:06.742Z,73504
2017-05-20T08:13:07.369Z,25664
2017-05-20T08:14:08.003Z,97664
2017-05-20T08:15:08.628Z,72544
2017-05-20T08:16:09.248Z,19384
2017-05-20T08:17:09.883Z,69088
2017-05-20T08:18:10.497Z,95712
2017-05-20T08:19:11.130Z,46560
2017-05-20T08:20:11.749Z,71488
2017-05-20T08:21:12.381Z,93856
2017-05-20T08:22:12.997Z,95296
2017-05-20T08:23:13.618Z,74400
2017-05-20T08:24:14.251Z,28096
2017-05-20T08:25:14.926Z,89408
2017-05-20T08:26:15.548Z,88352
2017-05-20T08:27:17.221Z,92320
2017-05-20T08:28:17.859Z,82848
2017-05-20T08:29:18.481Z,104064
2017-05-20T08:30:19.117Z,106592
2017-05-20T08:31:19.739Z,26336
2017-05-20T08:32:20.385Z,29600
2017-05-20T08:33:21.093Z,42848
2017-05-20T08:34:21.848Z,26944
2017-05-20T08:35:22.470Z,108096
2017-05-20T08:36:23.093Z,110464
2017-05-20T08:37:23.782Z,33344
2017-05-20T08:38:24.398Z,32800
2017-05-20T08:39:25.022Z,25824
2017-05-20T08:40:25.648Z,26112
2017-05-20T08:41:26.276Z,26912
2017-05-20T08:42:26.901Z,31296
2017-05-20T08:43:27.516Z,68896
2017-05-20T08:44:28.145Z,28832
2017-05-20T08:45:28.758Z,28448
2017-05-20T08:46:29.420Z,28288
2017-05-20T08:47:30.031Z,30016
2017-05-20T08:48:30.653Z,124960
2017-05-20T08:49:31.283Z,31904
2017-05-20T08:50:31.903Z,26688
2017-05-20T08:51:32.518Z,26752
2017-05-20T08:52:33.194Z,28480
2017-05-20T08:53:33.823Z,29312
2017-05-20T08:54:34.448Z,29056
2017-05-20T08:55:35.065Z,28160
2017-05-20T08:56:35.676Z,26560
2017-05-20T08:57:36.284Z,25152
2017-05-20T08:58:36.903Z,25120
2017-05-20T08:59:37.535Z,25696
2017-05-20T09:00:38.152Z,26912
2017-05-20T09:01:38.770Z,33792
2017-05-20T09:02:39.380Z,30720
2017-05-20T09:03:39.998Z,34624
2017-05-20T09:04:40.638Z,94560
2017-05-20T09:05:41.250Z,117920
2017-05-20T09:06:41.873Z,38304
2017-05-20T09:07:42.503Z,36608
2017-05-20T09:08:43.116Z,36192
2017-05-20T09:09:43.744Z,35840
2017-05-20T09:10:44.369Z,34944
2017-05-20T09:11:44.998Z,34400
2017-05-20T09:12:45.622Z,34144
2017-05-20T09:13:46.249Z,29344
2017-05-20T09:14:46.870Z,118592
2017-05-20T09:15:47.505Z,116640
2017-05-20T09:16:48.120Z,116608
2017-05-20T09:17:48.740Z,118912
2017-05-20T09:18:49.370Z,69632
2017-05-20T09:19:50.000Z,58368
2017-05-20T09:20:50.611Z,42432
2017-05-20T09:21:51.238Z,50688
2017-05-20T09:22:51.924Z,43104
2017-05-20T09:23:52.549Z,41024
2017-05-20T09:24:53.163Z,69696
2017-05-20T09:25:53.793Z,32032
2017-05-20T09:26:54.424Z,30272
2017-05-20T09:27:55.054Z,31968
2017-05-20T09:28:55.681Z,33760
2017-05-20T09:29:56.307Z,33920
2017-05-20T09:30:56.939Z,36992
2017-05-20T09:31:57.567Z,47840
2017-05-20T09:32:58.198Z,125408
2017-05-20T09:33:58.826Z,123104
2017-05-20T09:34:59.447Z,69024
2017-05-20T09:36:00.070Z,110656
2017-05-20T09:37:00.681Z,33344
2017-05-20T09:38:01.300Z,30496
2017-05-20T09:39:01.926Z,29984
2017-05-20T09:40:02.538Z,31264
2017-05-20T09:41:03.168Z,34528
2017-05-20T09:42:03.786Z,36416
2017-05-20T09:43:04.407Z,31264
2017-05-20T09:44:05.035Z,27616
2017-05-20T09:45:05.661Z,25184
2017-05-20T09:46:06.277Z,26016
2017-05-20T09:47:06.898Z,26688
2017-05-20T09:48:07.517Z,24768
2017-05-20T09:49:08.148Z,24960
2017-05-20T09:50:08.771Z,40576
2017-05-20T09:51:09.380Z,104096
2017-05-20T09:52:10.003Z,58464
2017-05-20T09:53:10.635Z,110336
2017-05-20T09:54:11.260Z,108896
2017-05-20T09:55:11.890Z,109696
2017-05-20T09:56:12.501Z,113120
2017-05-20T09:57:13.125Z,110592
2017-05-20T09:58:13.741Z,118688
2017-05-20T09:59:14.369Z,93024
2017-05-20T10:00:14.981Z,42624
2017-05-20T10:01:15.614Z,112576
2017-05-20T10:02:16.245Z,114752
2017-05-20T10:03:16.857Z,94528
2017-05-20T10:04:17.487Z,128384
2017-05-20T10:05:18.126Z,60960
2017-05-20T10:06:18.749Z,46112
2017-05-20T10:07:19.386Z,36928
2017-05-20T10:08:20.026Z,43232
2017-05-20T10:09:20.654Z,135360
2017-05-20T10:10:21.286Z,137408
2017-05-20T10:11:21.918Z,137824
2017-05-20T10:12:22.535Z,136960
2017-05-20T10:13:23.162Z,137728
2017-05-20T10:14:23.787Z,136384
2017-05-20T10:15:24.412Z,135904
2017-05-20T10:16:25.026Z,136672
2017-05-20T10:17:25.645Z,131872
2017-05-20T10:18:26.270Z,135872
2017-05-20T10:19:26.898Z,133696
2017-05-20T10:20:27.531Z,133152
2017-05-20T10:21:28.154Z,135968
2017-05-20T10:22:28.774Z,135072
2017-05-20T10:23:29.396Z,135232
2017-05-20T10:24:30.009Z,135520
2017-05-20T10:25:30.638Z,128928
2017-05-20T10:26:31.272Z,137152
2017-05-20T10:27:31.907Z,135904
2017-05-20T10:28:32.548Z,138176
2017-05-20T10:29:33.165Z,136352
2017-05-20T10:30:33.810Z,130688
2017-05-20T10:31:34.441Z,123392
2017-05-20T10:32:35.084Z,117184
2017-05-20T10:33:35.724Z,115008
2017-05-20T10:34:36.356Z,118528
2017-05-20T10:35:36.993Z,122976
2017-05-20T10:36:37.627Z,126784
2017-05-20T10:37:38.250Z,129600
2017-05-20T10:38:38.889Z,127040
2017-05-20T10:39:39.527Z,126112
2017-05-20T10:40:40.143Z,44928
2017-05-20T10:41:40.780Z,127872
2017-05-20T10:42:41.397Z,133088
2017-05-20T10:43:42.026Z,33376
2017-05-20T10:44:42.644Z,30176
2017-05-20T10:45:43.270Z,104608
2017-05-20T10:46:43.903Z,144064
2017-05-20T10:47:44.527Z,43808
2017-05-20T10:48:45.164Z,91392
2017-05-20T10:49:45.793Z,31776
2017-05-20T10:50:46.408Z,30496
2017-05-20T10:51:47.032Z,34656
2017-05-20T10:52:47.647Z,34880
2017-05-20T10:53:48.272Z,31232
2017-05-20T10:54:48.893Z,65728
2017-05-20T10:55:49.510Z,31168
2017-05-20T10:56:50.133Z,33216
2017-05-20T10:57:50.752Z,144640
2017-05-20T10:58:51.381Z,135040
2017-05-20T10:59:52.002Z,133408
2017-05-20T11:00:52.641Z,134816
2017-05-20T11:01:53.277Z,137408
2017-05-20T11:02:53.890Z,132512
2017-05-20T11:03:54.521Z,129344
2017-05-20T11:04:55.141Z,18840
2017-05-20T11:05:55.771Z,70816
2017-05-20T11:06:56.407Z,125216
2017-05-20T11:07:57.090Z,122208
2017-05-20T11:08:57.716Z,120512
2017-05-20T11:09:58.341Z,120576
2017-05-20T11:10:58.967Z,117120
2017-05-20T11:11:59.591Z,116256
2017-05-20T11:13:00.229Z,116000
2017-05-20T11:14:00.865Z,117600
2017-05-20T11:15:01.481Z,119840
2017-05-20T11:16:02.107Z,122016
2017-05-20T11:17:02.737Z,122144
2017-05-20T11:18:03.371Z,121024
2017-05-20T11:19:04.014Z,120128
2017-05-20T11:20:04.659Z,118336
2017-05-20T11:21:05.288Z,117344
2017-05-20T11:22:05.921Z,121888
2017-05-20T11:23:06.556Z,115968
2017-05-20T11:24:07.195Z,129056
2017-05-20T11:25:07.829Z,133376
2017-05-20T11:26:08.456Z,54976
2017-05-20T11:27:09.088Z,48384
2017-05-20T11:28:09.715Z,145024
2017-05-20T11:29:10.345Z,92768
2017-05-20T11:30:10.967Z,45664
2017-05-20T11:31:11.600Z,149376
2017-05-20T11:32:12.233Z,137216
2017-05-20T11:33:12.867Z,127072
2017-05-20T11:34:13.488Z,125568
2017-05-20T11:35:14.106Z,127392
2017-05-20T11:36:14.722Z,35168
2017-05-20T11:37:15.358Z,128736
2017-05-20T11:38:15.991Z,124640
2017-05-20T11:39:16.628Z,116384
2017-05-20T11:40:17.258Z,108064
2017-05-20T11:41:17.907Z,107072
2017-05-20T11:42:18.533Z,110144
2017-05-20T11:43:19.169Z,115840
2017-05-20T11:44:19.799Z,120192
2017-05-20T11:45:20.420Z,122112
2017-05-20T11:46:21.036Z,32032
2017-05-20T11:47:21.675Z,38880
2017-05-20T11:48:22.288Z,40480
2017-05-20T11:49:22.921Z,44192
2017-05-20T11:50:23.570Z,34112
2017-05-20T11:51:24.230Z,33888
2017-05-20T11:52:24.904Z,36576
2017-05-20T11:53:25.544Z,38240
2017-05-20T11:54:26.167Z,103392
2017-05-20T11:55:26.805Z,127744
2017-05-20T11:56:27.431Z,117440
2017-05-20T11:57:28.062Z,120448
2017-05-20T11:58:28.700Z,120768
2017-05-20T11:59:29.327Z,123264
2017-05-20T12:00:29.953Z,122272
2017-05-20T12:01:30.578Z,120800
2017-05-20T12:02:31.207Z,118304
2017-05-20T12:03:31.844Z,117568
2017-05-20T12:04:32.466Z,118048
2017-05-20T12:05:33.101Z,119072
2017-05-20T12:06:33.716Z,119936
2017-05-20T12:07:34.354Z,123104
2017-05-20T12:08:35.038Z,126240
2017-05-20T12:09:35.674Z,126176
2017-05-20T12:10:36.312Z,125280
2017-05-20T12:11:36.952Z,127136
2017-05-20T12:12:37.585Z,129248
2017-05-20T12:13:38.226Z,131648
2017-05-20T12:14:38.859Z,133216
2017-05-20T12:15:39.495Z,133504
2017-05-20T12:16:40.125Z,53216
2017-05-20T12:17:40.755Z,133920
2017-05-20T12:18:41.438Z,132640
2017-05-20T12:19:42.074Z,129248
2017-05-20T12:20:42.711Z,125088
2017-05-20T12:21:43.350Z,121632
2017-05-20T12:22:43.991Z,120384
2017-05-20T12:23:44.691Z,119488
2017-05-20T12:24:45.319Z,116256
2017-05-20T12:25:45.952Z,110144
2017-05-20T12:26:46.585Z,104896
2017-05-20T12:27:47.228Z,102752
2017-05-20T12:28:47.845Z,102816
2017-05-20T12:29:48.464Z,105792
2017-05-20T12:30:49.101Z,107648
2017-05-20T12:31:49.722Z,105664
2017-05-20T12:32:50.364Z,100384
2017-05-20T12:33:50.984Z,96608
2017-05-20T12:34:51.609Z,96992
2017-05-20T12:35:52.235Z,101024
2017-05-20T12:36:52.878Z,107072
2017-05-20T12:37:53.495Z,110688
2017-05-20T12:38:54.155Z,108256
2017-05-20T12:39:54.808Z,109088
2017-05-20T12:40:55.483Z,104704
2017-05-20T12:41:56.106Z,104768
2017-05-20T12:42:56.731Z,106336
2017-05-20T12:43:57.374Z,110144
2017-05-20T12:44:58.009Z,112480
2017-05-20T12:45:58.675Z,115232
2017-05-20T12:46:59.304Z,117408
2017-05-20T12:47:59.925Z,26688
2017-05-20T12:49:00.558Z,44480
2017-05-20T12:50:01.174Z,117280
2017-05-20T12:51:01.792Z,115904
2017-05-20T12:52:02.411Z,117664
2017-05-20T12:53:03.052Z,117600
2017-05-20T12:54:03.708Z,115232
2017-05-20T12:55:04.329Z,111392
2017-05-20T12:56:04.945Z,108576
2017-05-20T12:57:05.613Z,106720
2017-05-20T12:58:06.250Z,106048
2017-05-20T12:59:06.864Z,107936
2017-05-20T13:00:07.482Z,111552
2017-05-20T13:01:08.117Z,115712
2017-05-20T13:02:08.735Z,118048
2017-05-20T13:03:09.353Z,119456
2017-05-20T13:04:09.971Z,118272
2017-05-20T13:05:10.587Z,114688
2017-05-20T13:06:11.230Z,113056
2017-05-20T13:07:11.841Z,115776
2017-05-20T13:08:12.458Z,119584
2017-05-20T13:09:13.079Z,121760
2017-05-20T13:10:13.736Z,124320
2017-05-20T13:11:14.396Z,98304
2017-05-20T13:12:15.012Z,122336
2017-05-20T13:13:15.638Z,115872
2017-05-20T13:14:16.263Z,113888
2017-05-20T13:15:16.885Z,112896
2017-05-20T13:16:17.524Z,115744
2017-05-20T13:17:18.158Z,116224
2017-05-20T13:18:18.782Z,113696
2017-05-20T13:19:19.402Z,110656
2017-05-20T13:20:20.028Z,109248
2017-05-20T13:21:20.667Z,99456
2017-05-20T13:22:21.303Z,97824
2017-05-20T13:23:21.935Z,98464
2017-05-20T13:24:22.570Z,102688
2017-05-20T13:25:23.203Z,107840